Time;durP1;ratioP1;P1;durP2;ratioP2;P2;SDS_P1;SDS_P2;PMS_P1;PMS_P2;Temp;Humidity;BMP_temperature;BMP_pressure;BME280_temperature;BME280_humidity;BME280_pressure;Samples;Min_cycle;Max_cycle;Signal;HPM_P1;HPM_P2
2022/06/07 00:01:34;;;;;;;2.23;2.03;;;;;;;16.71;100.00;96254.22;5011159;28;102372;-62
2022/06/07 00:04:01;;;;;;;2.43;2.20;;;;;;;16.71;100.00;96263.09;5013084;28;104064;-62
2022/06/07 00:06:28;;;;;;;3.83;1.70;;;;;;;16.71;100.00;96262.28;5010246;28;105665;-62
2022/06/07 00:08:55;;;;;;;1.83;1.73;;;;;;;16.66;100.00;96257.00;5011202;28;102733;-62
2022/06/07 00:11:23;;;;;;;2.50;1.57;;;;;;;16.59;100.00;96253.88;5011749;28;101848;-62
2022/06/07 00:13:51;;;;;;;1.60;1.50;;;;;;;16.60;100.00;96256.28;5010323;28;105225;-62
2022/06/07 00:16:19;;;;;;;1.83;1.73;;;;;;;16.63;100.00;96252.22;5009519;28;105789;-62
2022/06/07 00:18:46;;;;;;;1.90;1.63;;;;;;;16.60;100.00;96248.22;5011533;28;102216;-62
2022/06/07 00:21:14;;;;;;;1.80;1.70;;;;;;;16.69;100.00;96248.38;5011841;28;103012;-62
2022/06/07 00:23:41;;;;;;;1.83;1.60;;;;;;;16.52;100.00;96243.50;5009562;28;105750;-62
2022/06/07 00:26:08;;;;;;;2.60;1.80;;;;;;;16.54;100.00;96253.97;5013427;28;101948;-62
2022/06/07 00:28:36;;;;;;;2.00;1.60;;;;;;;16.62;100.00;96254.09;5010693;28;102855;-62
2022/06/07 00:31:04;;;;;;;2.20;1.93;;;;;;;16.55;100.00;96260.91;5009995;28;101983;-62
2022/06/07 00:33:33;;;;;;;3.17;1.93;;;;;;;16.44;100.00;96267.53;5011322;28;102614;-62
2022/06/07 00:36:00;;;;;;;1.60;1.50;;;;;;;16.36;100.00;96274.28;5009281;28;106134;-62
2022/06/07 00:38:28;;;;;;;1.83;1.73;;;;;;;16.35;100.00;96266.56;5009866;28;101996;-62
2022/06/07 00:40:55;;;;;;;1.60;1.50;;;;;;;16.35;100.00;96271.94;5009904;28;105596;-62
2022/06/07 00:43:23;;;;;;;2.30;1.87;;;;;;;16.26;100.00;96268.28;5010459;28;102552;-62
2022/06/07 00:45:51;;;;;;;3.87;1.70;;;;;;;16.29;100.00;96270.41;5009773;28;101999;-62
2022/06/07 00:48:18;;;;;;;1.87;1.70;;;;;;;16.20;100.00;96272.13;5012725;28;105791;-62
2022/06/07 00:50:53;;;;;;;2.67;1.87;;;;;;;16.11;100.00;96271.16;5009685;28;101990;-62
2022/06/07 00:53:28;;;;;;;2.30;2.10;;;;;;;16.15;100.00;96280.22;5009344;28;105117;-62
2022/06/07 00:56:01;;;;;;;2.10;2.00;;;;;;;16.22;100.00;96278.78;5009181;28;105685;-62
2022/06/07 00:58:30;;;;;;;2.30;2.20;;;;;;;16.24;100.00;96281.19;5009686;28;101888;-62
2022/06/07 01:01:01;;;;;;;5.87;2.77;;;;;;;16.16;100.00;96285.31;5008904;28;105127;-62
2022/06/07 01:03:29;;;;;;;2.60;2.40;;;;;;;16.12;100.00;96286.97;5008804;28;105588;-62
2022/06/07 01:10:43;;;;;;;2.80;2.60;;;;;;;16.10;100.00;96293.69;5009153;28;102015;-62
2022/06/07 01:11:28;;;;;;;4.53;3.00;;;;;;;16.06;100.00;96285.44;4984770;28;105170;-62
2022/06/07 01:13:56;;;;;;;2.93;2.67;;;;;;;16.16;100.00;96281.81;5009181;28;104727;-62
2022/06/07 01:16:30;;;;;;;3.97;2.80;;;;;;;16.14;100.00;96275.97;5008702;28;105095;-62
2022/06/07 01:18:58;;;;;;;4.67;2.90;;;;;;;16.12;100.00;96284.28;5009276;28;101818;-62
2022/06/07 01:21:45;;;;;;;4.27;2.67;;;;;;;16.14;100.00;96282.09;5010667;28;102608;-62
2022/06/07 01:24:14;;;;;;;3.00;2.80;;;;;;;16.13;100.00;96277.81;5008668;28;105056;-62
2022/06/07 01:27:04;;;;;;;3.07;2.87;;;;;;;16.13;100.00;96275.16;5008925;28;101840;-62
2022/06/07 01:29:32;;;;;;;3.73;2.73;;;;;;;16.08;100.00;96275.22;5009213;28;104929;-62
2022/06/07 01:31:59;;;;;;;2.57;2.43;;;;;;;16.04;100.00;96279.56;5008032;28;105712;-62
2022/06/07 01:34:28;;;;;;;3.07;2.70;;;;;;;16.04;100.00;96287.63;5012486;28;101941;-62
2022/06/07 01:36:57;;;;;;;3.47;3.00;;;;;;;15.98;100.00;96285.28;5008347;28;103926;-63
2022/06/07 01:42:13;;;;;;;3.17;2.87;;;;;;;16.06;100.00;96279.25;5008851;28;105267;-62
2022/06/07 01:44:42;;;;;;;3.47;3.17;;;;;;;16.06;100.00;96279.25;5009574;28;102693;-62
2022/06/07 01:47:11;;;;;;;3.00;2.80;;;;;;;16.12;100.00;96283.47;5010198;28;101823;-63
2022/06/07 01:49:44;;;;;;;3.73;2.90;;;;;;;16.08;100.00;96287.84;5008465;28;103889;-62
2022/06/07 01:52:15;;;;;;;3.33;3.07;;;;;;;15.95;100.00;96304.59;5008251;28;104142;-62
2022/06/07 01:54:45;;;;;;;3.30;3.00;;;;;;;15.93;100.00;96306.78;5012206;28;101890;-62
2022/06/07 01:57:13;;;;;;;3.10;2.90;;;;;;;15.99;100.00;96308.31;5008073;28;105092;-62
2022/06/07 01:59:40;;;;;;;3.67;3.20;;;;;;;16.03;100.00;96312.81;5008298;28;101997;-63
2022/06/07 02:02:13;;;;;;;3.47;3.20;;;;;;;16.05;100.00;96310.66;5008567;28;105155;-63
2022/06/07 02:04:42;;;;;;;5.07;4.00;;;;;;;16.03;100.00;96312.03;5007998;28;105728;-63
2022/06/07 02:07:11;;;;;;;4.73;4.23;;;;;;;16.01;100.00;96314.19;5008572;28;102045;-63
2022/06/07 02:09:40;;;;;;;5.77;5.27;;;;;;;15.92;100.00;96308.66;5008540;28;105341;-63
2022/06/07 02:12:10;;;;;;;5.97;5.43;;;;;;;15.87;100.00;96308.72;5008036;28;105148;-63
2022/06/07 02:14:38;;;;;;;5.57;5.17;;;;;;;15.83;100.00;96312.25;5009915;28;101824;-62
2022/06/07 02:17:06;;;;;;;6.70;6.10;;;;;;;15.79;100.00;96316.59;5012582;28;102433;-62
2022/06/07 02:19:41;;;;;;;6.97;6.40;;;;;;;15.72;100.00;96308.91;5008541;28;101882;-63
2022/06/07 02:22:09;;;;;;;7.47;6.90;;;;;;;15.72;100.00;96316.13;5008404;28;105079;-63
2022/06/07 02:24:36;;;;;;;7.53;6.83;;;;;;;15.63;100.00;96312.47;5007901;28;104982;-62
2022/06/07 02:27:08;;;;;;;8.63;7.23;;;;;;;15.63;100.00;96317.81;5009759;28;102089;-63
2022/06/07 02:29:38;;;;;;;8.20;7.40;;;;;;;15.63;100.00;96315.13;5010058;28;102448;-62
2022/06/07 02:32:10;;;;;;;8.70;7.90;;;;;;;15.61;100.00;96309.28;5008995;28;103871;-63
2022/06/07 02:34:39;;;;;;;8.97;8.00;;;;;;;15.63;100.00;96312.47;5008294;28;101930;-62
2022/06/07 02:37:07;;;;;;;8.50;7.73;;;;;;;15.71;100.00;96315.34;5009625;28;102415;-62
2022/06/07 02:39:36;;;;;;;8.07;7.37;;;;;;;15.71;100.00;96318.03;5011021;28;105345;-62
2022/06/07 02:42:08;;;;;;;8.13;7.43;;;;;;;15.73;100.00;96317.72;5009544;28;102301;-63
2022/06/07 02:44:36;;;;;;;8.10;7.10;;;;;;;15.70;100.00;96318.31;5010649;28;105913;-62
2022/06/07 02:47:04;;;;;;;7.30;6.70;;;;;;;15.68;100.00;96323.13;5012856;28;101803;-62
2022/06/07 02:49:32;;;;;;;6.80;6.20;;;;;;;15.64;100.00;96328.25;5011717;28;105267;-62
2022/06/07 02:51:59;;;;;;;6.77;6.20;;;;;;;15.67;100.00;96324.22;5010825;28;105225;-62
2022/06/07 02:54:27;;;;;;;6.37;5.87;;;;;;;15.72;100.00;96322.31;5011537;28;102047;-62
2022/06/07 02:56:56;;;;;;;6.83;6.23;;;;;;;15.69;100.00;96333.56;5011586;28;104793;-62
2022/06/07 02:59:25;;;;;;;7.03;6.43;;;;;;;15.72;100.00;96327.66;5010545;28;105956;-62
2022/06/07 03:01:52;;;;;;;7.93;7.23;;;;;;;15.76;100.00;96322.53;5014529;28;102184;-63
2022/06/07 03:04:20;;;;;;;7.40;6.67;;;;;;;15.78;100.00;96323.84;5010754;28;105457;-62
2022/06/07 03:06:47;;;;;;;7.33;6.73;;;;;;;15.81;100.00;96327.84;5012748;28;103408;-63
2022/06/07 03:09:14;;;;;;;7.60;7.00;;;;;;;15.82;100.00;96324.06;5011371;28;105203;-62
2022/06/07 03:11:41;;;;;;;7.23;6.53;;;;;;;15.85;100.00;96323.47;5010311;28;105595;-62
2022/06/07 03:14:10;;;;;;;8.23;7.53;;;;;;;15.82;100.00;96311.47;5011135;28;101893;-62
2022/06/07 03:16:40;;;;;;;7.43;6.83;;;;;;;15.89;100.00;96316.47;5012433;28;102401;-62
2022/06/07 03:19:08;;;;;;;7.17;6.57;;;;;;;15.94;100.00;96327.97;5010693;28;105694;-62
2022/06/07 03:21:39;;;;;;;7.13;6.53;;;;;;;15.96;100.00;96323.09;4995119;28;101929;-62
2022/06/07 03:24:08;;;;;;;7.40;6.67;;;;;;;15.99;100.00;96321.72;5013667;28;105231;-62
2022/06/07 03:26:35;;;;;;;8.33;7.53;;;;;;;16.04;100.00;96313.63;5010950;28;101956;-62
2022/06/07 03:29:12;;;;;;;9.03;8.23;;;;;;;16.07;100.00;96313.06;5011063;28;105181;-62
2022/06/07 03:31:42;;;;;;;6.90;6.40;;;;;;;16.07;100.00;96308.50;5010454;28;105460;-62
2022/06/07 03:34:13;;;;;;;7.27;6.63;;;;;;;16.08;100.00;96314.66;5010933;28;101899;-62
2022/06/07 03:36:43;;;;;;;8.23;7.43;;;;;;;16.11;100.00;96312.19;5010651;28;104137;-63
2022/06/07 03:39:11;;;;;;;7.43;6.73;;;;;;;16.12;100.00;96311.13;5011595;28;102655;-62
2022/06/07 03:41:50;;;;;;;7.37;6.77;;;;;;;16.11;100.00;96314.06;5010573;28;101962;-62
2022/06/07 03:44:22;;;;;;;7.00;6.50;;;;;;;16.05;100.00;96312.53;5010621;28;105652;-62
2022/06/07 03:46:57;;;;;;;8.33;6.67;;;;;;;16.09;100.00;96310.88;5013500;28;105101;-62
2022/06/07 03:49:24;;;;;;;7.60;6.90;;;;;;;16.07;100.00;96303.13;5010800;28;105086;-62
2022/06/07 03:51:55;;;;;;;6.93;6.43;;;;;;;16.11;100.00;96311.38;5010153;28;105072;-62
2022/06/07 03:54:23;;;;;;;8.10;7.40;;;;;;;16.05;100.00;96305.31;5010334;28;102048;-62
2022/06/07 03:56:51;;;;;;;8.27;7.47;;;;;;;16.05;100.00;96299.94;5010542;28;105287;-62
2022/06/07 03:59:22;;;;;;;7.60;6.90;;;;;;;16.10;100.00;96296.38;5009827;28;105151;-62
2022/06/07 04:01:50;;;;;;;7.07;6.47;;;;;;;16.12;100.00;96302.25;5010153;28;101922;-62
2022/06/07 04:04:20;;;;;;;7.03;6.43;;;;;;;16.16;100.00;96301.41;5010559;28;105565;-62
2022/06/07 04:09:38;;;;;;;6.90;6.30;;;;;;;16.19;100.00;96297.34;5009944;28;104958;-62
2022/06/07 04:12:08;;;;;;;6.83;6.23;;;;;;;16.21;100.00;96297.84;5009716;28;105248;-62
2022/06/07 04:14:37;;;;;;;6.77;6.20;;;;;;;16.20;100.00;96291.72;5010311;28;101849;-62
2022/06/07 04:17:04;;;;;;;7.10;6.50;;;;;;;16.20;100.00;96297.06;5010401;28;104940;-62
2022/06/07 04:19:34;;;;;;;6.73;6.23;;;;;;;16.19;100.00;96297.34;5009393;28;105829;-62
2022/06/07 04:22:03;;;;;;;6.83;6.23;;;;;;;16.19;100.00;96292.78;5011863;28;101900;-62
2022/06/07 04:24:39;;;;;;;6.47;5.97;;;;;;;16.23;100.00;96287.63;5010237;28;104658;-63
2022/06/07 04:27:06;;;;;;;5.97;5.47;;;;;;;16.20;100.00;96286.34;5009512;28;105083;-62
2022/06/07 04:29:35;;;;;;;6.97;6.37;;;;;;;16.25;100.00;96285.47;5013085;28;101980;-62
2022/06/07 04:32:03;;;;;;;7.13;6.53;;;;;;;16.25;100.00;96280.88;5009346;28;105408;-62
2022/06/07 04:34:35;;;;;;;6.83;6.17;;;;;;;16.28;100.00;96287.56;5009857;28;101844;-62
2022/06/07 04:37:02;;;;;;;7.00;6.40;;;;;;;16.31;100.00;96281.63;5010118;28;105211;-62
2022/06/07 04:39:30;;;;;;;8.13;6.67;;;;;;;16.30;100.00;96282.72;5010364;28;103114;-62
2022/06/07 04:42:06;;;;;;;7.60;6.27;;;;;;;16.30;100.00;96272.78;5009870;28;101812;-63
2022/06/07 04:44:51;;;;;;;6.70;6.10;;;;;;;16.30;100.00;96275.47;5009734;28;103243;-62
2022/06/07 04:47:21;;;;;;;6.30;5.80;;;;;;;16.29;100.00;96284.59;5009175;28;105162;-62
2022/06/07 04:49:50;;;;;;;6.33;5.83;;;;;;;16.25;100.00;96282.78;5009636;28;102049;-62
2022/06/07 04:52:18;;;;;;;6.20;5.63;;;;;;;16.24;100.00;96281.97;5012621;28;105554;-62
2022/06/07 04:54:45;;;;;;;6.40;5.80;;;;;;;16.26;100.00;96285.19;5009674;28;101955;-62
2022/06/07 04:57:12;;;;;;;6.47;5.97;;;;;;;16.27;100.00;96280.59;5009591;28;105145;-62
2022/06/07 04:59:44;;;;;;;5.80;5.40;;;;;;;16.26;100.00;96279.81;5008477;28;105129;-62
2022/06/07 05:02:13;;;;;;;6.10;5.60;;;;;;;16.26;100.00;96279.00;5009522;28;101967;-62
2022/06/07 05:04:41;;;;;;;6.47;5.97;;;;;;;16.28;100.00;96276.81;5009428;28;104777;-62
2022/06/07 05:07:19;;;;;;;6.80;6.20;;;;;;;16.26;100.00;96287.88;5007634;28;105224;-62
2022/06/07 05:10:16;;;;;;;6.90;6.30;;;;;;;16.27;100.00;96280.59;5009761;28;101959;-62
2022/06/07 05:12:48;;;;;;;6.83;6.23;;;;;;;16.27;100.00;96276.06;5009404;28;104840;-62
2022/06/07 05:15:21;;;;;;;7.20;6.60;;;;;;;16.29;100.00;96287.28;5012266;28;105803;-62
2022/06/07 05:17:55;;;;;;;7.47;6.87;;;;;;;16.21;100.00;96284.44;5009163;28;104826;-62
2022/06/07 05:20:24;;;;;;;6.30;5.80;;;;;;;16.28;100.00;96292.94;5008685;28;105287;-62
2022/06/07 05:23:00;;;;;;;5.93;5.53;;;;;;;16.31;100.00;96289.69;5009173;28;101936;-62
2022/06/07 05:25:27;;;;;;;6.50;6.00;;;;;;;16.31;100.00;96282.44;5010445;28;102776;-62
2022/06/07 05:27:57;;;;;;;6.87;6.27;;;;;;;16.34;100.00;96275.66;5008510;28;105151;-61
2022/06/07 05:30:30;;;;;;;6.93;6.13;;;;;;;16.38;100.00;96277.50;5009037;28;101892;-62
2022/06/07 05:33:05;;;;;;;7.00;6.40;;;;;;;16.35;100.00;96285.34;5009219;28;105392;-62
2022/06/07 05:35:38;;;;;;;6.70;6.13;;;;;;;16.31;100.00;96278.94;5008441;28;105497;-62
2022/06/07 05:38:14;;;;;;;6.90;6.30;;;;;;;16.32;100.00;96280.53;5012401;28;101935;-62
2022/06/07 05:40:45;;;;;;;6.13;5.57;;;;;;;16.37;100.00;96280.47;5008119;28;105229;-62
2022/06/07 05:43:16;;;;;;;6.90;6.30;;;;;;;16.37;100.00;96280.47;5008968;28;101937;-62
2022/06/07 05:45:49;;;;;;;6.93;6.33;;;;;;;16.35;100.00;96280.75;5008981;28;105217;-62
2022/06/07 05:48:21;;;;;;;7.00;6.40;;;;;;;16.38;100.00;96282.88;5008048;28;103928;-62
2022/06/07 05:50:52;;;;;;;6.90;6.40;;;;;;;16.37;100.00;96283.97;5008721;28;101857;-62
2022/06/07 05:53:26;;;;;;;6.47;5.77;;;;;;;16.35;100.00;96277.28;5008814;28;105293;-61
2022/06/07 05:55:54;;;;;;;5.83;5.43;;;;;;;16.38;100.00;96282.06;5007954;28;105532;-61
2022/06/07 05:58:22;;;;;;;6.50;6.00;;;;;;;16.40;100.00;96266.53;5008601;28;102196;-61
2022/06/07 06:00:50;;;;;;;5.87;5.37;;;;;;;16.42;100.00;96272.38;5010678;28;105123;-62
2022/06/07 06:03:23;;;;;;;5.93;5.43;;;;;;;16.43;100.00;96273.97;5008567;28;101926;-61
2022/06/07 06:05:51;;;;;;;5.67;5.23;;;;;;;16.44;100.00;96271.00;5008520;28;103817;-61
2022/06/07 06:11:25;;;;;;;5.23;4.87;;;;;;;16.48;100.00;96276.59;5008385;28;101872;-61
2022/06/07 06:14:09;;;;;;;5.80;5.30;;;;;;;16.51;100.00;96271.44;5008463;28;104903;-61
2022/06/07 06:16:40;;;;;;;6.67;6.00;;;;;;;16.56;100.00;96275.97;5008308;28;104019;-62
2022/06/07 06:19:11;;;;;;;6.10;5.50;;;;;;;16.62;100.00;96272.88;5011933;28;102119;-61
2022/06/07 06:21:45;;;;;;;5.87;5.40;;;;;;;16.67;100.00;96264.00;5014747;28;104918;-61
2022/06/07 06:24:17;;;;;;;6.30;5.70;;;;;;;16.71;100.00;96264.97;5012074;28;102294;-62
2022/06/07 06:26:46;;;;;;;6.70;6.10;;;;;;;16.79;100.00;96267.03;5012193;28;105544;-62
2022/06/07 06:29:17;;;;;;;6.53;5.93;;;;;;;16.84;100.00;96266.94;5011318;28;105230;-62
2022/06/07 06:31:46;;;;;;;7.03;6.43;;;;;;;16.82;100.00;96267.22;5011873;28;102113;-62
2022/06/07 06:34:15;;;;;;;6.10;5.50;;;;;;;16.75;100.00;96266.00;5011780;28;104829;-61
2022/06/07 06:36:44;;;;;;;6.10;5.60;;;;;;;16.77;100.00;96274.56;5011280;28;105617;-62
2022/06/07 06:39:12;;;;;;;5.90;5.50;;;;;;;16.83;100.00;96273.38;5011642;28;102074;-62
2022/06/07 06:41:47;;;;;;;6.30;5.80;;;;;;;16.85;100.00;96265.84;5011544;28;105144;-62
2022/06/07 06:44:18;;;;;;;6.53;6.03;;;;;;;16.85;100.00;96266.63;5014760;28;106101;-61
2022/06/07 06:46:49;;;;;;;6.20;5.77;;;;;;;16.84;100.00;96258.88;5011782;28;104922;-62
2022/06/07 06:49:20;;;;;;;5.80;5.40;;;;;;;16.90;100.00;96268.47;5010805;28;105521;-62
2022/06/07 06:51:48;;;;;;;5.80;5.30;;;;;;;16.88;100.00;96259.88;5011661;28;102163;-61
2022/06/07 06:54:18;;;;;;;6.10;5.60;;;;;;;16.92;100.00;96260.91;5011436;28;104879;-61
2022/06/07 06:56:54;;;;;;;6.80;6.13;;;;;;;16.95;100.00;96260.31;5011065;28;105349;-61
2022/06/07 06:59:26;;;;;;;6.10;5.60;;;;;;;16.87;100.00;96263.66;5011630;28;101832;-62
2022/06/07 07:01:57;;;;;;;5.77;5.37;;;;;;;16.95;100.00;96261.09;5013008;28;102620;-61
2022/06/07 07:04:27;;;;;;;6.33;5.73;;;;;;;17.03;100.00;96263.13;5010750;28;104967;-62
2022/06/07 07:06:56;;;;;;;6.00;5.50;;;;;;;17.04;100.00;96267.41;5014786;28;101842;-61
2022/06/07 07:09:27;;;;;;;6.03;5.63;;;;;;;17.04;100.00;96263.91;5010122;28;105019;-62
2022/06/07 07:11:59;;;;;;;6.77;6.17;;;;;;;17.11;100.00;96267.03;5011013;28;101934;-61
2022/06/07 07:14:48;;;;;;;6.80;6.20;;;;;;;17.12;100.00;96263.25;5011872;28;103686;-62
2022/06/07 07:17:21;;;;;;;6.23;5.70;;;;;;;17.26;100.00;96272.94;5010379;28;105078;-62
2022/06/07 07:19:51;;;;;;;6.70;6.20;;;;;;;17.31;100.00;96269.38;5010952;28;101865;-61
2022/06/07 07:22:22;;;;;;;6.60;6.10;;;;;;;17.19;100.00;96263.66;5011087;28;104800;-61
2022/06/07 07:24:50;;;;;;;5.97;5.40;;;;;;;17.29;100.00;96267.00;5010410;28;103877;-62
2022/06/07 07:27:23;;;;;;;6.73;6.13;;;;;;;17.28;100.00;96270.75;5011285;28;101852;-61
2022/06/07 07:29:50;;;;;;;6.10;5.60;;;;;;;17.25;100.00;96275.94;5013072;28;105460;-61
2022/06/07 07:32:22;;;;;;;6.20;5.70;;;;;;;17.25;100.00;96270.56;5010928;28;101863;-61
2022/06/07 07:34:54;;;;;;;6.33;5.87;;;;;;;16.87;100.00;96269.03;5010895;28;105939;-61
2022/06/07 07:37:23;;;;;;;6.43;5.93;;;;;;;16.44;100.00;96270.19;5010025;28;105653;-61
2022/06/07 07:39:56;;;;;;;7.40;6.80;;;;;;;16.05;100.00;96272.31;5010847;28;101951;-61
2022/06/07 07:42:29;;;;;;;8.03;7.33;;;;;;;15.98;100.00;96269.19;5010678;28;105733;-61
2022/06/07 07:45:04;;;;;;;9.80;8.90;;;;;;;16.01;100.00;96271.28;5010154;28;105518;-61
2022/06/07 07:47:31;;;;;;;8.67;7.87;;;;;;;15.78;100.00;96270.22;5010455;28;101939;-62
2022/06/07 07:49:58;;;;;;;8.87;8.07;;;;;;;15.71;100.00;96277.00;5010331;28;104666;-62
2022/06/07 07:52:27;;;;;;;9.60;8.80;;;;;;;15.92;100.00;96276.47;5013315;28;105724;-61
2022/06/07 07:55:07;;;;;;;8.77;8.07;;;;;;;15.73;100.00;96274.81;5010657;28;105357;-62
2022/06/07 07:57:36;;;;;;;8.43;7.73;;;;;;;15.74;100.00;96279.91;5009739;28;105375;-62
2022/06/07 08:00:06;;;;;;;8.20;7.50;;;;;;;15.74;100.00;96274.53;5010146;28;102141;-62
2022/06/07 08:02:40;;;;;;;8.13;7.33;;;;;;;15.72;100.00;96273.22;5009047;28;102155;-61
2022/06/07 08:05:20;;;;;;;7.83;7.13;;;;;;;15.70;100.00;96281.56;5009813;28;105775;-62
2022/06/07 08:07:48;;;;;;;8.40;7.70;;;;;;;15.60;100.00;96280.88;5010185;28;102362;-61
2022/06/07 08:10:16;;;;;;;9.03;8.23;;;;;;;15.57;100.00;96286.78;5011619;28;102527;-61
2022/06/07 08:12:45;;;;;;;10.73;8.90;;;;;;;15.51;100.00;96293.28;5011093;28;102631;-61
2022/06/07 08:15:13;;;;;;;9.70;8.80;;;;;;;15.52;100.00;96284.16;5013872;28;101771;-62
2022/06/07 08:17:40;;;;;;;9.40;8.43;;;;;;;15.50;100.00;96289.00;5009487;28;103760;-62
2022/06/07 08:20:08;;;;;;;9.23;8.50;;;;;;;15.45;100.00;96283.69;5011706;28;102048;-62
2022/06/07 08:22:35;;;;;;;9.43;8.63;;;;;;;15.42;100.00;96290.41;5010062;28;105719;-62
2022/06/07 08:25:03;;;;;;;8.97;8.27;;;;;;;15.44;100.00;96287.47;5009336;28;105453;-62
2022/06/07 08:27:29;;;;;;;9.47;8.67;;;;;;;15.45;100.00;96294.41;5011681;28;101737;-62
2022/06/07 08:29:58;;;;;;;9.17;8.40;;;;;;;15.46;100.00;96302.19;5011445;28;102553;-62
2022/06/07 08:32:26;;;;;;;10.03;9.23;;;;;;;15.48;100.00;96294.66;5010852;28;102656;-62
2022/06/07 08:37:40;;;;;;;9.27;8.47;;;;;;;15.51;100.00;96298.66;5010737;28;103694;-61
2022/06/07 08:40:12;;;;;;;9.97;9.17;;;;;;;15.58;100.00;96297.22;5010354;28;102215;-62
2022/06/07 08:42:49;;;;;;;10.40;9.50;;;;;;;15.47;100.00;96308.34;5009612;28;106831;-62
2022/06/07 08:45:22;;;;;;;10.10;9.17;;;;;;;15.53;100.00;96301.88;5010652;28;102619;-62
2022/06/07 08:47:53;;;;;;;6.73;6.13;;;;;;;15.36;100.00;96313.00;5009797;28;101919;-62
2022/06/07 08:50:24;;;;;;;4.93;4.53;;;;;;;15.10;100.00;96316.16;5010954;28;102976;-62
2022/06/07 08:52:55;;;;;;;4.40;4.00;;;;;;;15.10;100.00;96313.47;5010602;28;103179;-62
2022/06/07 08:55:26;;;;;;;4.60;4.20;;;;;;;15.01;100.00;96321.31;5011386;28;101844;-62
2022/06/07 08:57:59;;;;;;;4.90;4.50;;;;;;;14.98;100.00;96315.72;5013727;28;102919;-62
2022/06/07 09:00:32;;;;;;;5.23;4.83;;;;;;;14.95;100.00;96317.06;5010713;28;101937;-62
2022/06/07 09:03:30;;;;;;;5.97;5.47;;;;;;;14.90;100.00;96329.69;5011137;28;102305;-61
2022/06/07 09:06:00;;;;;;;6.53;5.93;;;;;;;14.87;100.00;96336.38;5010320;28;103284;-62
2022/06/07 09:08:35;;;;;;;6.80;6.10;;;;;;;14.78;100.00;96340.72;5009441;28;102189;-62
2022/06/07 09:13:51;;;;;;;4.77;4.33;;;;;;;14.46;100.00;96359.13;5010074;28;101985;-62
2022/06/07 09:16:20;;;;;;;5.20;4.70;;;;;;;14.41;100.00;96371.72;5010822;28;101939;-61
2022/06/07 09:18:51;;;;;;;5.30;4.90;;;;;;;14.42;100.00;96363.41;5010813;28;102396;-61
2022/06/07 09:21:25;;;;;;;5.60;4.70;;;;;;;14.31;100.00;96363.72;5011987;28;106115;-62
2022/06/07 09:23:54;;;;;;;5.07;4.67;;;;;;;14.33;100.00;96370.41;5010583;28;102399;-61
2022/06/07 09:26:27;;;;;;;4.80;4.43;;;;;;;14.39;100.00;96361.28;5008101;28;105836;-62
2022/06/07 09:29:14;;;;;;;4.93;4.53;;;;;;;14.47;100.00;96363.41;5010445;28;101786;-61
2022/06/07 09:31:45;;;;;;;4.40;4.10;;;;;;;14.39;100.00;96360.50;5009244;28;105426;-61
2022/06/07 09:34:20;;;;;;;4.57;4.27;;;;;;;14.38;100.00;96380.31;5009954;28;102937;-61
2022/06/07 09:36:55;;;;;;;4.80;4.50;;;;;;;14.70;100.00;96377.97;5010384;28;101745;-61
2022/06/07 09:39:28;;;;;;;4.90;4.50;;;;;;;14.80;100.00;96383.28;5008888;28;104822;-61
2022/06/07 09:42:02;;;;;;;4.50;4.20;;;;;;;14.82;100.00;96386.50;5009782;28;104316;-61
2022/06/07 09:44:33;;;;;;;5.90;5.40;;;;;;;14.96;100.00;96392.81;5012254;28;101801;-61
2022/06/07 09:47:04;;;;;;;3.93;3.30;;;;;;;14.87;100.00;96389.94;5008300;28;105909;-61
2022/06/07 09:49:37;;;;;;;2.70;2.50;;;;;;;14.84;100.00;96387.00;5008931;28;102190;-61
2022/06/07 09:52:16;;;;;;;3.10;2.60;;;;;;;14.84;100.00;96390.50;5008144;28;105172;-61
2022/06/07 09:54:47;;;;;;;2.40;2.30;;;;;;;14.80;100.00;96384.09;5009652;28;102652;-61
2022/06/07 09:57:37;;;;;;;2.60;2.40;;;;;;;14.95;100.00;96391.22;5010285;28;101867;-61
2022/06/07 10:00:18;;;;;;;2.90;2.70;;;;;;;15.02;100.00;96394.38;5008066;28;105561;-61
2022/06/07 10:03:16;;;;;;;3.60;3.30;;;;;;;15.11;100.00;96384.69;5009416;28;102526;-61
2022/06/07 10:05:48;;;;;;;3.60;3.30;;;;;;;15.25;100.00;96383.78;5010193;28;102030;-61
2022/06/07 10:08:39;;;;;;;7.50;5.80;;;;;;;15.16;100.00;96369.38;5013108;28;102446;-61
2022/06/07 10:11:15;;;;;;;3.20;2.90;;;;;;;15.20;100.00;96377.69;5008415;28;102386;-61
2022/06/07 10:14:02;;;;;;;3.40;3.00;;;;;;;15.22;100.00;96364.78;5010123;28;102501;-61
2022/06/07 10:16:45;;;;;;;3.20;2.90;;;;;;;15.51;100.00;96371.81;5007185;28;101829;-61
2022/06/07 10:19:29;;;;;;;3.57;2.90;;;;;;;15.59;100.00;96365.06;5009879;28;101824;-61
2022/06/07 10:22:08;;;;;;;3.10;2.90;;;;;;;15.66;100.00;96360.16;5009924;28;102533;-61
2022/06/07 10:24:44;;;;;;;2.93;2.70;;;;;;;15.73;100.00;96348.03;5007793;28;105928;-61
2022/06/07 10:27:18;;;;;;;3.70;3.40;;;;;;;16.02;100.00;96354.16;5008362;28;102095;-61
2022/06/07 10:30:12;;;;;;;4.00;3.00;;;;;;;15.97;100.00;96348.06;5009735;28;102324;-61
2022/06/07 10:32:51;;;;;;;3.60;2.90;;;;;;;16.09;100.00;96353.81;5012255;28;101720;-61
2022/06/07 10:35:25;;;;;;;4.53;3.93;;;;;;;16.18;100.00;96360.94;5009900;28;102688;-61
2022/06/07 10:38:11;;;;;;;2.70;2.50;;;;;;;16.03;100.00;96355.75;5009015;28;101879;-61
2022/06/07 10:40:44;;;;;;;2.57;2.37;;;;;;;15.81;100.00;96351.97;5009721;28;101837;-61
2022/06/07 10:43:25;;;;;;;2.60;2.40;;;;;;;16.08;100.00;96349.53;5007997;28;105537;-61
2022/06/07 10:45:57;;;;;;;2.90;2.70;;;;;;;16.08;100.00;96347.63;5009288;28;102821;-61
2022/06/07 10:48:33;;;;;;;2.80;2.70;;;;;;;15.99;100.00;96343.19;5009495;28;101831;-61
2022/06/07 10:52:20;;;;;;;3.50;3.30;;;;;;;16.37;100.00;96345.69;5007918;28;105477;-61
2022/06/07 10:53:56;;;;;;;3.17;2.97;;;;;;;16.60;100.00;96338.72;5010225;28;105884;-61
2022/06/07 10:56:27;;;;;;;3.50;3.30;;;;;;;16.61;100.00;96329.56;5007996;28;104973;-61
2022/06/07 10:58:56;;;;;;;3.40;3.10;;;;;;;16.95;100.00;96335.53;5008971;28;102645;-61
2022/06/07 11:01:32;;;;;;;3.00;2.80;;;;;;;16.70;100.00;96331.34;5009012;28;102063;-61
2022/06/07 11:04:08;;;;;;;3.03;2.77;;;;;;;16.72;100.00;96339.88;5010177;28;102309;-61
2022/06/07 11:09:37;;;;;;;2.73;2.50;;;;;;;16.77;100.00;96339.00;5012411;28;101878;-61
2022/06/07 11:12:12;;;;;;;3.20;3.00;;;;;;;16.60;100.00;96336.03;5012870;28;102395;-61
2022/06/07 11:14:53;;;;;;;3.00;2.80;;;;;;;16.46;100.00;96338.63;5011784;28;101861;-61
2022/06/07 11:17:29;;;;;;;2.63;2.43;;;;;;;16.56;100.00;96338.50;5014883;28;102093;-61
2022/06/07 11:20:01;;;;;;;3.00;2.80;;;;;;;16.42;100.00;96332.25;5011609;28;102790;-61
2022/06/07 11:22:36;;;;;;;2.50;2.30;;;;;;;16.47;100.00;96326.00;5012828;28;101774;-61
2022/06/07 11:25:28;;;;;;;2.47;2.37;;;;;;;16.35;100.00;96326.38;5012530;28;102372;-61
2022/06/07 11:27:58;;;;;;;2.70;2.50;;;;;;;16.45;100.00;96330.88;5011957;28;102599;-61
2022/06/07 11:30:44;;;;;;;2.60;2.50;;;;;;;16.22;100.00;96328.97;5012525;28;101791;-61
2022/06/07 11:33:31;;;;;;;2.70;2.50;;;;;;;16.03;100.00;96326.22;5010897;28;105617;-61
2022/06/07 11:36:27;;;;;;;2.30;2.20;;;;;;;16.04;100.00;96333.22;5011733;28;102550;-61
2022/06/07 11:39:18;;;;;;;2.93;2.73;;;;;;;16.06;100.00;96327.53;5010827;28;101891;-61
2022/06/07 11:41:48;;;;;;;3.53;3.23;;;;;;;16.07;100.00;96334.53;5013770;28;105156;-61
2022/06/07 11:44:58;;;;;;;3.00;2.70;;;;;;;16.17;100.00;96340.56;5010732;28;101978;-61
2022/06/07 11:48:03;;;;;;;3.17;2.97;;;;;;;16.32;100.00;96326.97;5006933;28;102526;-61
2022/06/07 11:50:33;;;;;;;2.93;2.73;;;;;;;16.41;100.00;96319.09;5011396;28;102537;-61
2022/06/07 11:53:19;;;;;;;3.40;3.10;;;;;;;16.54;100.00;96319.19;5011957;28;102276;-61
2022/06/07 11:55:53;;;;;;;3.30;3.10;;;;;;;16.37;100.00;96318.84;5012262;28;101807;-61
2022/06/07 11:58:54;;;;;;;3.13;2.93;;;;;;;16.35;100.00;96320.22;5009944;28;105904;-61
2022/06/07 12:01:38;;;;;;;2.70;2.60;;;;;;;16.09;100.00;96318.94;5011550;28;102193;-61